Time;durP1;ratioP1;P1;durP2;ratioP2;P2;SDS_P1;SDS_P2;PMS_P1;PMS_P2;Temp;Humidity;BMP_temperature;BMP_pressure;BME280_temperature;BME280_humidity;BME280_pressure;Samples;Min_cycle;Max_cycle;Signal;HPM_P1;HPM_P2
2022/06/15 00:02:11;;;;;;;;;;;;;;;22.50;47.33;101629.81;7282979;19;153328;-57
2022/06/15 00:04:38;;;;;;;;;;;;;;;22.49;47.42;101625.31;7284351;19;153454;-57
2022/06/15 00:07:05;;;;;;;;;;;;;;;22.50;47.60;101623.34;7283804;19;152516;-56
2022/06/15 00:09:33;;;;;;;;;;;;;;;22.51;47.67;101634.31;7284311;19;153274;-59
2022/06/15 00:11:59;;;;;;;;;;;;;;;22.51;47.70;101627.84;7284479;19;153877;-57
2022/06/15 00:14:27;;;;;;;;;;;;;;;22.51;47.46;101622.22;7292866;19;152014;-59
2022/06/15 00:16:54;;;;;;;;;;;;;;;22.51;47.75;101628.69;7283808;19;154302;-58
2022/06/15 00:19:21;;;;;;;;;;;;;;;22.51;48.00;101620.25;7285427;19;152165;-59
2022/06/15 00:21:48;;;;;;;;;;;;;;;22.50;47.74;101621.38;7285284;19;155121;-59
2022/06/15 00:24:15;;;;;;;;;;;;;;;22.53;47.76;101622.75;7281084;19;154473;-58
2022/06/15 00:26:42;;;;;;;;;;;;;;;22.54;48.08;101613.97;7282745;19;152239;-60
2022/06/15 00:29:09;;;;;;;;;;;;;;;22.53;48.17;101608.69;7283969;19;152447;-60
2022/06/15 00:31:36;;;;;;;;;;;;;;;22.53;48.23;101615.13;7283924;19;153246;-59
2022/06/15 00:34:03;;;;;;;;;;;;;;;22.55;47.82;101612.84;7282748;19;154598;-60
2022/06/15 00:36:29;;;;;;;;;;;;;;;22.57;48.16;101613.41;7290261;19;153559;-59
2022/06/15 00:38:57;;;;;;;;;;;;;;;22.58;48.09;101614.19;7284890;19;151575;-58
2022/06/15 00:41:26;;;;;;;;;;;;;;;22.65;48.10;101619.47;7283866;19;152745;-59
2022/06/15 00:43:57;;;;;;;;;;;;;;;22.65;47.88;101616.66;7280910;19;154862;-60
2022/06/15 00:46:24;;;;;;;;;;;;;;;22.65;47.99;101619.47;7282406;19;152833;-57
2022/06/15 00:48:53;;;;;;;;;;;;;;;22.67;47.89;101625.63;7285323;19;152779;-60
2022/06/15 00:51:21;;;;;;;;;;;;;;;22.63;48.06;101625.38;7282192;19;154044;-59
2022/06/15 00:53:48;;;;;;;;;;;;;;;22.62;48.55;101623.75;7283226;19;152132;-60
2022/06/15 00:56:15;;;;;;;;;;;;;;;22.60;48.10;101621.22;7283854;19;153213;-58
2022/06/15 00:58:45;;;;;;;;;;;;;;;22.61;48.57;101616.44;7289094;19;151942;-57
2022/06/15 01:01:13;;;;;;;;;;;;;;;22.61;48.19;101616.44;7283148;19;152616;-58
2022/06/15 01:03:40;;;;;;;;;;;;;;;22.62;48.29;101618.09;7279860;19;154024;-57
2022/06/15 01:06:23;;;;;;;;;;;;;;;22.66;48.33;101616.34;7281988;19;151683;-58
2022/06/15 01:09:09;;;;;;;;;;;;;;;22.65;48.60;101613.81;7283767;19;152001;-59
2022/06/15 01:11:45;;;;;;;;;;;;;;;22.71;48.24;101612.66;7281463;19;154015;-56
2022/06/15 01:14:31;;;;;;;;;;;;;;;22.74;48.13;101614.84;7287771;19;151752;-58
2022/06/15 01:17:03;;;;;;;;;;;;;;;22.75;48.28;101611.72;7289241;19;152595;-60
2022/06/15 01:19:45;;;;;;;;;;;;;;;22.68;48.83;101608.41;7294707;19;153993;-59
2022/06/15 01:22:29;;;;;;;;;;;;;;;22.64;48.94;101610.16;7288075;19;153150;-60
2022/06/15 01:25:05;;;;;;;;;;;;;;;22.62;48.75;101607.66;7288371;19;153186;-56
2022/06/15 01:27:34;;;;;;;;;;;;;;;22.62;48.76;101613.28;7289153;19;153212;-60
2022/06/15 01:30:20;;;;;;;;;;;;;;;22.62;48.87;101602.00;7288560;19;152474;-59
2022/06/15 01:33:04;;;;;;;;;;;;;;;22.61;48.81;101608.81;7287348;19;154016;-58
2022/06/15 01:35:36;;;;;;;;;;;;;;;22.60;49.01;101607.13;7286110;19;151924;-59
2022/06/15 01:38:25;;;;;;;;;;;;;;;22.60;49.18;101607.13;7289718;19;153292;-59
2022/06/15 01:40:57;;;;;;;;;;;;;;;22.61;49.33;101602.34;7284897;19;154019;-58
2022/06/15 01:43:27;;;;;;;;;;;;;;;22.61;49.34;101599.53;7296773;19;153125;-56
2022/06/15 01:45:56;;;;;;;;;;;;;;;22.61;49.41;101600.38;7286263;19;153828;-59
2022/06/15 01:48:23;;;;;;;;;;;;;;;22.60;49.25;101600.66;7287718;19;152274;-57
2022/06/15 01:50:55;;;;;;;;;;;;;;;22.61;49.25;101600.38;7288399;19;152934;-56
2022/06/15 01:53:25;;;;;;;;;;;;;;;22.60;49.49;101593.06;7286481;19;153750;-59
2022/06/15 01:55:59;;;;;;;;;;;;;;;22.62;49.15;101589.94;7287779;19;153245;-60
2022/06/15 01:58:28;;;;;;;;;;;;;;;22.69;49.42;101596.00;7288248;19;152670;-58
2022/06/15 02:01:00;;;;;;;;;;;;;;;22.70;49.07;101596.88;7283678;19;153353;-56
2022/06/15 02:03:45;;;;;;;;;;;;;;;22.67;49.50;101592.66;7286829;19;152123;-60
2022/06/15 02:06:15;;;;;;;;;;;;;;;22.65;49.49;101588.47;7295154;19;153365;-57
2022/06/15 02:08:47;;;;;;;;;;;;;;;22.65;49.25;101586.50;7288429;19;151912;-57
2022/06/15 02:11:15;;;;;;;;;;;;;;;22.63;49.41;101588.78;7288992;19;155035;-59
2022/06/15 02:13:59;;;;;;;;;;;;;;;22.62;49.14;101585.13;7287633;19;153328;-56
2022/06/15 02:16:38;;;;;;;;;;;;;;;22.62;49.43;101585.13;7287899;19;151756;-58
2022/06/15 02:19:06;;;;;;;;;;;;;;;22.65;49.58;101585.66;7285008;19;152659;-59
2022/06/15 02:21:35;;;;;;;;;;;;;;;22.69;49.79;101592.34;7287225;19;154019;-58
2022/06/15 02:24:03;;;;;;;;;;;;;;;22.73;49.26;101585.81;7286216;19;151931;-57
2022/06/15 02:26:32;;;;;;;;;;;;;;;22.74;49.11;101590.31;7283439;19;153016;-57
2022/06/15 02:29:00;;;;;;;;;;;;;;;22.77;49.32;101589.69;7293838;19;153621;-56
2022/06/15 02:31:27;;;;;;;;;;;;;;;22.81;49.25;101595.53;7288470;19;154156;-57
2022/06/15 02:33:56;;;;;;;;;;;;;;;22.82;49.41;101591.59;7286829;19;154442;-59
2022/06/15 02:36:24;;;;;;;;;;;;;;;22.79;49.49;101593.06;7288091;19;152397;-57
2022/06/15 02:38:51;;;;;;;;;;;;;;;22.82;49.64;101592.44;7288524;19;153195;-57
2022/06/15 02:41:19;;;;;;;;;;;;;;;22.82;49.46;101589.59;7285088;19;153948;-55
2022/06/15 02:43:49;;;;;;;;;;;;;;;22.85;49.45;101586.16;7286450;19;152078;-56
2022/06/15 02:46:17;;;;;;;;;;;;;;;22.86;49.41;101584.19;7287811;19;152886;-59
2022/06/15 02:48:44;;;;;;;;;;;;;;;22.83;49.57;101590.44;7285704;19;153671;-58
2022/06/15 02:51:18;;;;;;;;;;;;;;;22.85;49.89;101591.81;7294874;19;151709;-56
2022/06/15 02:53:46;;;;;;;;;;;;;;;22.88;49.81;101591.19;7286144;19;153851;-57
2022/06/15 02:56:14;;;;;;;;;;;;;;;22.87;49.49;101600.78;7286958;19;152014;-59
2022/06/15 02:58:43;;;;;;;;;;;;;;;22.89;49.83;101600.50;7285966;19;152896;-57
2022/06/15 03:01:09;;;;;;;;;;;;;;;22.89;49.57;101595.69;7283228;19;153344;-57
2022/06/15 03:03:37;;;;;;;;;;;;;;;22.89;49.73;101601.34;7286913;19;151843;-58
2022/06/15 03:06:08;;;;;;;;;;;;;;;22.88;50.08;101599.66;7286135;19;153612;-59
2022/06/15 03:08:35;;;;;;;;;;;;;;;22.85;49.93;101611.53;7285748;19;153988;-58
2022/06/15 03:11:02;;;;;;;;;;;;;;;22.82;50.03;101612.16;7293050;19;152077;-58
2022/06/15 03:13:29;;;;;;;;;;;;;;;22.81;50.29;101613.28;7286229;19;153603;-58
2022/06/15 03:15:56;;;;;;;;;;;;;;;22.77;50.20;101617.88;7286976;19;152394;-58
2022/06/15 03:18:23;;;;;;;;;;;;;;;22.77;50.34;101606.59;7286487;19;153415;-57
2022/06/15 03:20:50;;;;;;;;;;;;;;;22.78;50.21;101604.63;7283369;19;153285;-58
2022/06/15 03:23:17;;;;;;;;;;;;;;;22.74;50.39;101595.13;7285891;19;152213;-58
2022/06/15 03:25:44;;;;;;;;;;;;;;;22.79;50.37;101589.41;7286705;19;152626;-58
2022/06/15 03:28:10;;;;;;;;;;;;;;;22.78;50.77;101590.53;7282906;19;153157;-58
2022/06/15 03:30:38;;;;;;;;;;;;;;;22.73;50.91;101585.81;7286150;19;151866;-58
2022/06/15 03:33:05;;;;;;;;;;;;;;;22.71;50.90;101585.31;7291503;19;153651;-59
2022/06/15 03:35:35;;;;;;;;;;;;;;;22.70;51.13;101582.78;7286935;19;151663;-59
2022/06/15 03:38:03;;;;;;;;;;;;;;;22.70;50.87;101583.63;7284541;19;152554;-58
2022/06/15 03:40:30;;;;;;;;;;;;;;;22.67;51.29;101577.75;7285865;19;153586;-58
2022/06/15 03:42:56;;;;;;;;;;;;;;;22.68;51.20;101579.41;7285045;19;151751;-57
2022/06/15 03:45:23;;;;;;;;;;;;;;;22.68;51.37;101577.41;7279113;19;152754;-56
2022/06/15 03:47:50;;;;;;;;;;;;;;;22.67;51.01;101580.56;7284123;19;153611;-58
2022/06/15 03:50:17;;;;;;;;;;;;;;;22.66;50.89;101585.38;7285588;19;152081;-59
2022/06/15 03:52:44;;;;;;;;;;;;;;;22.65;51.44;101594.94;7286038;19;153218;-59
2022/06/15 03:55:11;;;;;;;;;;;;;;;22.64;51.23;101582.00;7289096;19;153817;-56
2022/06/15 03:57:38;;;;;;;;;;;;;;;22.65;51.10;101583.69;7284726;19;153612;-58
2022/06/15 04:00:06;;;;;;;;;;;;;;;22.65;51.06;101575.22;7281809;19;153764;-56
2022/06/15 04:02:32;;;;;;;;;;;;;;;22.70;50.85;101572.38;7285414;19;153162;-59
2022/06/15 04:04:59;;;;;;;;;;;;;;;22.69;50.85;101578.25;7281975;19;152601;-58
2022/06/15 04:10:13;;;;;;;;;;;;;;;22.68;51.27;101576.59;7285559;19;152020;-57
2022/06/15 04:12:42;;;;;;;;;;;;;;;22.67;50.94;101578.56;7282269;19;153309;-56
2022/06/15 04:15:09;;;;;;;;;;;;;;;22.66;51.16;101576.06;7283138;19;153747;-59
2022/06/15 04:17:36;;;;;;;;;;;;;;;22.65;51.23;101578.03;7291802;19;152238;-55
2022/06/15 04:22:48;;;;;;;;;;;;;;;22.66;51.13;101579.72;7280825;19;152660;-56
2022/06/15 04:25:15;;;;;;;;;;;;;;;22.69;51.06;101584.75;7283583;19;152922;-59
2022/06/15 04:27:41;;;;;;;;;;;;;;;22.69;51.39;101583.91;7283894;19;153217;-54
2022/06/15 04:30:09;;;;;;;;;;;;;;;22.69;51.33;101593.19;7285285;19;152404;-58
2022/06/15 04:32:36;;;;;;;;;;;;;;;22.71;50.92;101592.94;7281903;19;152582;-58
2022/06/15 04:35:03;;;;;;;;;;;;;;;22.71;50.95;101592.94;7281668;19;154486;-58
2022/06/15 04:37:29;;;;;;;;;;;;;;;22.67;51.42;101598.28;7285062;19;152226;-57
2022/06/15 04:39:56;;;;;;;;;;;;;;;22.68;51.23;101588.69;7290301;19;152857;-58
2022/06/15 04:42:23;;;;;;;;;;;;;;;22.68;51.31;101596.31;7284288;19;151864;-58
2022/06/15 04:44:50;;;;;;;;;;;;;;;22.65;51.02;101588.47;7282088;19;152563;-58
2022/06/15 04:47:16;;;;;;;;;;;;;;;22.66;51.09;101596.63;7279490;19;153831;-57
2022/06/15 04:49:43;;;;;;;;;;;;;;;22.63;51.61;101600.88;7290219;19;152569;-57
2022/06/15 04:52:09;;;;;;;;;;;;;;;22.62;46.93;101602.00;7289594;19;153732;-56
2022/06/15 04:54:36;;;;;;;;;;;;;;;22.54;47.31;101590.63;7290272;19;154042;-57
2022/06/15 04:57:03;;;;;;;;;;;;;;;22.54;48.37;101596.25;7290456;19;152119;-58
2022/06/15 04:59:30;;;;;;;;;;;;;;;22.54;49.17;101590.63;7287963;19;152841;-58
2022/06/15 05:01:58;;;;;;;;;;;;;;;22.52;49.31;101593.75;7296084;19;154082;-59
2022/06/15 05:04:27;;;;;;;;;;;;;;;22.50;49.89;101598.84;7289656;19;155576;-57
2022/06/15 05:06:54;;;;;;;;;;;;;;;22.52;49.94;101595.72;7289899;19;154164;-56
2022/06/15 05:09:21;;;;;;;;;;;;;;;22.51;50.21;101596.88;7287860;19;156715;-57
2022/06/15 05:11:48;;;;;;;;;;;;;;;22.50;50.11;101596.03;7289678;19;153372;-58
2022/06/15 05:14:15;;;;;;;;;;;;;;;22.51;50.00;101602.50;7288394;19;154426;-58
2022/06/15 05:16:42;;;;;;;;;;;;;;;22.49;50.45;101599.97;7289990;19;151683;-56
2022/06/15 05:19:09;;;;;;;;;;;;;;;22.49;50.03;101599.97;7288791;19;152733;-58
2022/06/15 05:21:39;;;;;;;;;;;;;;;22.52;50.51;101610.66;7295640;19;153763;-57
2022/06/15 05:24:06;;;;;;;;;;;;;;;22.52;50.53;101605.03;7289155;19;153122;-59
2022/06/15 05:26:33;;;;;;;;;;;;;;;22.52;50.67;101598.56;7288189;19;154200;-58
2022/06/15 05:29:00;;;;;;;;;;;;;;;22.53;50.46;101614.31;7289330;19;151752;-59
2022/06/15 05:31:27;;;;;;;;;;;;;;;22.57;50.54;101610.56;7288320;19;152623;-60
2022/06/15 05:33:55;;;;;;;;;;;;;;;22.56;50.45;101616.50;7287633;19;153223;-58
2022/06/15 05:36:24;;;;;;;;;;;;;;;22.54;50.56;101613.16;7288309;19;152272;-58
2022/06/15 05:38:51;;;;;;;;;;;;;;;22.52;50.95;101610.66;7289023;19;152336;-58
2022/06/15 05:41:18;;;;;;;;;;;;;;;22.53;50.42;101611.50;7287603;19;153949;-57
2022/06/15 05:43:59;;;;;;;;;;;;;;;22.52;50.98;101613.47;7295739;19;151688;-59
2022/06/15 05:46:28;;;;;;;;;;;;;;;22.52;50.79;101612.63;7288919;19;153275;-56
2022/06/15 05:48:55;;;;;;;;;;;;;;;22.52;50.84;101607.00;7287699;19;151739;-59
2022/06/15 05:51:21;;;;;;;;;;;;;;;22.53;50.60;101609.50;7288262;19;153057;-59
2022/06/15 05:53:48;;;;;;;;;;;;;;;22.53;50.67;101619.94;7287228;19;153256;-60
2022/06/15 05:56:16;;;;;;;;;;;;;;;22.52;50.85;101615.44;7288948;19;151597;-57
2022/06/15 05:58:44;;;;;;;;;;;;;;;22.53;50.85;101614.31;7285291;19;153966;-59
2022/06/15 06:01:13;;;;;;;;;;;;;;;22.52;51.05;101615.44;7288089;19;154258;-57
2022/06/15 06:03:39;;;;;;;;;;;;;;;22.52;50.98;101626.72;7289422;19;152513;-58
2022/06/15 06:06:06;;;;;;;;;;;;;;;22.52;50.79;101626.72;7292301;19;152796;-60
2022/06/15 06:08:33;;;;;;;;;;;;;;;22.53;51.09;101622.75;7288201;19;151693;-60
2022/06/15 06:11:00;;;;;;;;;;;;;;;22.54;50.87;101630.03;7288979;19;152593;-57
2022/06/15 06:13:26;;;;;;;;;;;;;;;22.57;51.32;101626.63;7287085;19;153916;-59
2022/06/15 06:15:55;;;;;;;;;;;;;;;22.56;50.95;101630.59;7288852;19;152311;-58
2022/06/15 06:18:22;;;;;;;;;;;;;;;22.65;51.47;101634.38;7287909;19;153946;-59
2022/06/15 06:20:50;;;;;;;;;;;;;;;22.67;50.88;101634.91;7287267;19;153245;-58
2022/06/15 06:23:18;;;;;;;;;;;;;;;22.64;49.99;101632.72;7286762;19;151486;-56
2022/06/15 06:25:47;;;;;;;;;;;;;;;22.63;50.17;101631.03;7284753;19;153315;-56
2022/06/15 06:28:23;;;;;;;;;;;;;;;22.64;49.91;101624.25;7293740;19;153739;-59
2022/06/15 06:30:50;;;;;;;;;;;;;;;22.59;50.09;101644.06;7287545;19;152491;-59
2022/06/15 06:33:17;;;;;;;;;;;;;;;22.57;50.33;101633.09;7284318;19;154346;-56
2022/06/15 06:35:44;;;;;;;;;;;;;;;22.54;50.26;101635.69;7289138;19;153347;-59
2022/06/15 06:38:16;;;;;;;;;;;;;;;22.51;50.55;101634.31;7287448;19;153332;-58
2022/06/15 06:40:43;;;;;;;;;;;;;;;22.50;50.59;101635.47;7286212;19;154088;-59
2022/06/15 06:43:10;;;;;;;;;;;;;;;22.49;50.66;101636.59;7286547;19;153064;-59
2022/06/15 06:45:36;;;;;;;;;;;;;;;22.47;50.68;101638.91;7285176;19;153349;-57
2022/06/15 06:48:03;;;;;;;;;;;;;;;22.54;50.06;101638.50;7284301;19;153975;-57
2022/06/15 06:50:35;;;;;;;;;;;;;;;22.55;50.20;101638.19;7295130;19;154220;-59
2022/06/15 06:53:03;;;;;;;;;;;;;;;22.50;50.01;101641.09;7285863;19;153040;-57
2022/06/15 06:55:30;;;;;;;;;;;;;;;22.49;49.68;101645.03;7286598;19;151741;-57
2022/06/15 06:57:57;;;;;;;;;;;;;;;22.48;49.53;101645.38;7283318;19;153344;-56
2022/06/15 07:00:28;;;;;;;;;;;;;;;22.45;49.89;101641.16;7284422;19;153455;-57
2022/06/15 07:03:00;;;;;;;;;;;;;;;22.45;49.78;101648.78;7287633;19;152756;-56
2022/06/15 07:05:32;;;;;;;;;;;;;;;22.45;49.65;101643.97;7282859;19;151781;-57
2022/06/15 07:07:59;;;;;;;;;;;;;;;22.45;49.41;101646.78;7286178;19;153365;-57
2022/06/15 07:10:26;;;;;;;;;;;;;;;22.45;49.59;101640.31;7284166;19;152271;-54
2022/06/15 07:12:53;;;;;;;;;;;;;;;22.42;49.16;101641.78;7291543;19;153130;-59
2022/06/15 07:15:20;;;;;;;;;;;;;;;22.40;48.97;101655.31;7288084;19;151831;-58
2022/06/15 07:17:47;;;;;;;;;;;;;;;22.39;49.52;101659.31;7284065;19;152630;-59
2022/06/15 07:20:13;;;;;;;;;;;;;;;22.37;49.47;101660.72;7286092;19;153454;-57
2022/06/15 07:22:40;;;;;;;;;;;;;;;22.36;49.40;101657.06;7285172;19;152324;-58
2022/06/15 07:25:08;;;;;;;;;;;;;;;22.33;49.18;101657.69;7286804;19;152962;-56
2022/06/15 07:27:36;;;;;;;;;;;;;;;22.35;49.08;101657.38;7284216;19;153970;-57
2022/06/15 07:30:07;;;;;;;;;;;;;;;22.32;49.15;101658.81;7283585;19;151967;-57
2022/06/15 07:32:34;;;;;;;;;;;;;;;22.34;49.24;101661.34;7292361;19;153313;-56
2022/06/15 07:35:00;;;;;;;;;;;;;;;22.36;48.84;101659.03;7283947;19;152324;-59
2022/06/15 07:37:27;;;;;;;;;;;;;;;22.32;49.16;101658.81;7287158;19;152742;-58
2022/06/15 07:40:14;;;;;;;;;;;;;;;22.33;48.80;101657.69;7283137;19;156429;-57
2022/06/15 07:42:41;;;;;;;;;;;;;;;22.36;47.53;101656.22;7286619;19;152216;-58
2022/06/15 07:45:09;;;;;;;;;;;;;;;22.32;45.70;101661.63;7284477;19;154538;-58
2022/06/15 07:50:21;;;;;;;;;;;;;;;22.10;46.06;101656.59;7283534;19;151951;-59
2022/06/15 07:52:58;;;;;;;;;;;;;;;22.12;45.51;101659.94;7287069;19;152561;-57
2022/06/15 07:55:26;;;;;;;;;;;;;;;22.14;45.93;101662.44;7290845;19;154614;-57
2022/06/15 07:57:54;;;;;;;;;;;;;;;22.11;46.13;101654.63;7284527;19;153093;-56
2022/06/15 08:00:22;;;;;;;;;;;;;;;22.06;46.23;101661.16;7283818;19;154395;-55
2022/06/15 08:02:49;;;;;;;;;;;;;;;22.00;46.46;101658.69;7283668;19;151733;-57
2022/06/15 08:05:17;;;;;;;;;;;;;;;21.94;46.28;101657.09;7284968;19;152686;-57
2022/06/15 08:07:44;;;;;;;;;;;;;;;21.87;46.23;101662.22;7280512;19;152350;-59
2022/06/15 08:10:13;;;;;;;;;;;;;;;21.82;46.39;101663.09;7285176;19;151812;-58
2022/06/15 08:12:40;;;;;;;;;;;;;;;21.76;46.02;101664.28;7284462;19;152614;-56
2022/06/15 08:15:07;;;;;;;;;;;;;;;21.79;45.87;101665.69;7283718;19;153599;-55
2022/06/15 08:17:36;;;;;;;;;;;;;;;21.79;46.50;101662.88;7293067;19;151763;-59
2022/06/15 08:20:11;;;;;;;;;;;;;;;21.80;46.25;101659.78;7281564;19;153917;-55
2022/06/15 08:22:39;;;;;;;;;;;;;;;21.79;46.52;101657.25;7282095;19;152718;-58
2022/06/15 08:25:08;;;;;;;;;;;;;;;21.81;46.15;101661.44;7283076;19;153375;-56
2022/06/15 08:27:35;;;;;;;;;;;;;;;21.77;45.95;101659.50;7284394;19;153955;-58
2022/06/15 08:30:08;;;;;;;;;;;;;;;21.79;46.14;101660.06;7285732;19;151789;-59
2022/06/15 08:32:35;;;;;;;;;;;;;;;21.84;46.13;101654.38;7282969;19;152691;-59
2022/06/15 08:35:02;;;;;;;;;;;;;;;21.70;45.69;101654.25;7283957;19;155639;-58
2022/06/15 08:37:29;;;;;;;;;;;;;;;21.65;45.62;101643.91;7281252;19;152260;-57
2022/06/15 08:39:56;;;;;;;;;;;;;;;21.68;45.83;101651.75;7289265;19;153414;-59
2022/06/15 08:42:41;;;;;;;;;;;;;;;21.65;45.87;101641.09;7284011;19;151871;-56
2022/06/15 08:45:11;;;;;;;;;;;;;;;21.67;46.09;101638.81;7283413;19;152607;-57
2022/06/15 08:47:56;;;;;;;;;;;;;;;21.69;46.05;101627.28;7282896;19;154217;-58
2022/06/15 08:50:26;;;;;;;;;;;;;;;21.64;45.82;101630.97;7283407;19;152425;-58
2022/06/15 08:52:58;;;;;;;;;;;;;;;21.64;46.04;101642.22;7284395;19;152894;-57
2022/06/15 08:55:51;;;;;;;;;;;;;;;21.61;45.56;101628.78;7282862;19;154012;-55
2022/06/15 08:58:17;;;;;;;;;;;;;;;21.62;45.60;101640.88;7281631;19;152164;-56
2022/06/15 09:00:45;;;;;;;;;;;;;;;21.64;45.66;101636.59;7282051;19;153805;-56
2022/06/15 09:03:12;;;;;;;;;;;;;;;21.68;45.54;101636.84;7289284;19;153239;-56
2022/06/15 09:05:50;;;;;;;;;;;;;;;21.74;45.55;101633.69;7284173;19;153140;-59
2022/06/15 09:08:17;;;;;;;;;;;;;;;21.79;45.57;101627.16;7281986;19;153795;-56
2022/06/15 09:10:47;;;;;;;;;;;;;;;21.73;45.62;101632.00;7282072;19;151840;-59
2022/06/15 09:13:13;;;;;;;;;;;;;;;21.74;45.48;101628.06;7283487;19;152609;-59
2022/06/15 09:15:52;;;;;;;;;;;;;;;21.79;45.30;101620.69;7282531;19;153258;-57
2022/06/15 09:18:22;;;;;;;;;;;;;;;21.79;44.67;101624.34;7283087;19;151563;-58
2022/06/15 09:20:54;;;;;;;;;;;;;;;21.77;43.98;101626.59;7282429;19;153422;-58
2022/06/15 09:23:24;;;;;;;;;;;;;;;21.73;43.78;101622.72;7281537;19;153293;-59
2022/06/15 09:25:54;;;;;;;;;;;;;;;21.74;43.93;101624.41;7289303;19;151525;-57
2022/06/15 09:28:26;;;;;;;;;;;;;;;21.73;43.02;101623.56;7279926;19;154388;-56
2022/06/15 09:30:55;;;;;;;;;;;;;;;21.74;42.83;101628.06;7283786;19;152375;-56
2022/06/15 09:33:29;;;;;;;;;;;;;;;21.77;42.82;101634.19;7280946;19;154777;-58
2022/06/15 09:36:02;;;;;;;;;;;;;;;21.80;43.40;101626.03;7289260;19;153277;-57
2022/06/15 09:38:31;;;;;;;;;;;;;;;21.84;43.39;101624.28;7288766;19;152430;-59
2022/06/15 09:41:00;;;;;;;;;;;;;;;21.87;43.52;101620.00;7288928;19;152328;-59
2022/06/15 09:43:36;;;;;;;;;;;;;;;21.90;43.46;101625.03;7287088;19;153288;-59
2022/06/15 09:46:04;;;;;;;;;;;;;;;21.93;43.97;101628.13;7294080;19;151855;-59
2022/06/15 09:48:31;;;;;;;;;;;;;;;21.97;43.74;101633.97;7284363;19;154228;-57
2022/06/15 09:51:03;;;;;;;;;;;;;;;22.01;43.81;101640.69;7288323;19;151714;-56
2022/06/15 09:53:32;;;;;;;;;;;;;;;22.03;43.20;101630.78;7289198;19;153122;-59
2022/06/15 09:56:03;;;;;;;;;;;;;;;22.04;43.34;101626.84;7284664;19;153752;-56
2022/06/15 09:58:55;;;;;;;;;;;;;;;22.09;43.56;101631.56;7286078;19;151734;-58
2022/06/15 10:01:23;;;;;;;;;;;;;;;22.13;43.22;101627.00;7240851;19;155624;-59
2022/06/15 10:03:52;;;;;;;;;;;;;;;22.18;42.78;101632.56;7269412;19;154413;-59
2022/06/15 10:06:31;;;;;;;;;;;;;;;22.20;43.58;101624.66;7280785;19;152002;-56
2022/06/15 10:08:59;;;;;;;;;;;;;;;22.27;43.90;101615.81;7288518;19;152935;-59
2022/06/15 10:11:51;;;;;;;;;;;;;;;22.29;43.74;101613.56;7285119;19;152208;-58
2022/06/15 10:14:20;;;;;;;;;;;;;;;22.33;44.18;101614.63;7283548;19;153338;-56
2022/06/15 10:17:10;;;;;;;;;;;;;;;22.33;43.52;101620.25;7283985;19;153483;-59
2022/06/15 10:19:37;;;;;;;;;;;;;;;22.38;43.86;101606.09;7281976;19;151689;-58
2022/06/15 10:22:06;;;;;;;;;;;;;;;22.42;44.04;101609.97;7284846;19;153306;-57
2022/06/15 10:24:37;;;;;;;;;;;;;;;22.46;43.87;101602.56;7281045;19;154336;-60
2022/06/15 10:27:16;;;;;;;;;;;;;;;22.48;43.94;101605.94;7282625;19;151906;-59
2022/06/15 10:29:43;;;;;;;;;;;;;;;22.52;43.71;101592.91;7281710;19;152615;-56
2022/06/15 10:32:11;;;;;;;;;;;;;;;22.50;44.06;101603.63;7287511;19;157536;-57
2022/06/15 10:34:41;;;;;;;;;;;;;;;22.53;43.99;101603.03;7282768;19;153730;-57
2022/06/15 10:37:17;;;;;;;;;;;;;;;22.55;43.89;101610.03;7282253;19;154649;-57
2022/06/15 10:39:47;;;;;;;;;;;;;;;22.56;44.39;101600.44;7282107;19;151871;-59
2022/06/15 10:42:16;;;;;;;;;;;;;;;22.59;44.27;101597.00;7282528;19;152266;-58
2022/06/15 10:44:52;;;;;;;;;;;;;;;22.63;44.34;101595.25;7282605;19;153136;-58
2022/06/15 10:50:37;;;;;;;;;;;;;;;22.67;44.81;101600.28;7280362;19;151859;-59
2022/06/15 10:53:30;;;;;;;;;;;;;;;22.66;44.39;101604.25;7282492;19;152498;-58
2022/06/15 11:02:25;;;;;;;;;;;;;;;22.72;44.83;101592.59;7283708;19;152145;-56
2022/06/15 11:04:55;;;;;;;;;;;;;;;22.73;44.78;101594.28;7277506;19;153201;-57
2022/06/15 11:07:22;;;;;;;;;;;;;;;22.81;45.03;101587.09;7278391;19;154460;-59
2022/06/15 11:09:54;;;;;;;;;;;;;;;22.80;44.71;101596.72;7283654;19;151827;-58
2022/06/15 11:12:32;;;;;;;;;;;;;;;22.80;44.65;101597.56;7282433;19;153355;-57
2022/06/15 11:15:13;;;;;;;;;;;;;;;22.82;44.73;101589.59;7279434;19;153334;-59
2022/06/15 11:18:04;;;;;;;;;;;;;;;22.89;44.47;101589.22;7282390;19;152357;-57
2022/06/15 11:20:33;;;;;;;;;;;;;;;22.97;43.88;101591.31;7289080;19;152876;-58
2022/06/15 11:23:09;;;;;;;;;;;;;;;22.99;43.60;101589.03;7281759;19;152553;-57
2022/06/15 11:25:43;;;;;;;;;;;;;;;22.97;43.65;101577.22;7281897;19;153168;-56
2022/06/15 11:28:13;;;;;;;;;;;;;;;22.95;43.83;101579.50;7278336;19;154384;-57
2022/06/15 11:30:45;;;;;;;;;;;;;;;22.95;43.98;101586.00;7281428;19;152090;-57
2022/06/15 11:33:26;;;;;;;;;;;;;;;23.01;43.95;101584.75;7280263;19;154863;-57
2022/06/15 11:35:56;;;;;;;;;;;;;;;23.00;43.42;101583.06;7279905;19;153979;-58
2022/06/15 11:38:43;;;;;;;;;;;;;;;22.98;43.66;101574.13;7229187;19;156702;-57
2022/06/15 11:41:20;;;;;;;;;;;;;;;22.95;43.76;101580.34;7281852;19;153250;-58
2022/06/15 11:43:50;;;;;;;;;;;;;;;22.94;44.28;101575.84;7288297;19;151747;-57
2022/06/15 11:46:36;;;;;;;;;;;;;;;22.94;44.07;101580.69;7282134;19;152638;-57
2022/06/15 11:49:09;;;;;;;;;;;;;;;22.95;44.34;101573.88;7281530;19;154016;-57
2022/06/15 11:51:38;;;;;;;;;;;;;;;22.97;44.35;101582.88;7281094;19;152285;-58
2022/06/15 11:54:05;;;;;;;;;;;;;;;22.94;43.96;101570.22;7281122;19;153155;-56
2022/06/15 11:56:48;;;;;;;;;;;;;;;22.95;44.07;101585.16;7280426;19;154867;-57
2022/06/15 11:59:23;;;;;;;;;;;;;;;22.95;44.29;101573.88;7277905;19;152768;-58
2022/06/15 12:02:29;;;;;;;;;;;;;;;22.97;44.25;101580.06;7282601;19;153406;-57
2022/06/15 12:04:56;;;;;;;;;;;;;;;22.99;44.00;101574.94;7280596;19;155838;-57
2022/06/15 12:07:33;;;;;;;;;;;;;;;23.00;44.40;101577.44;7277249;19;152625;-56
2022/06/15 12:10:17;;;;;;;;;;;;;;;23.00;43.97;101570.97;7281530;19;153408;-57
2022/06/15 12:12:54;;;;;;;;;;;;;;;23.01;43.91;101570.66;7283186;19;152580;-59
2022/06/15 12:15:27;;;;;;;;;;;;;;;23.01;44.41;101572.66;7281302;19;152742;-56
2022/06/15 12:18:14;;;;;;;;;;;;;;;23.00;44.21;101568.16;7280805;19;153328;-59
2022/06/15 12:20:55;;;;;;;;;;;;;;;22.99;44.21;101563.66;7278686;19;151751;-56
2022/06/15 12:23:30;;;;;;;;;;;;;;;23.01;44.23;101567.00;7281564;19;152534;-58
2022/06/15 12:26:23;;;;;;;;;;;;;;;23.02;44.33;101565.88;7276737;19;153437;-58
2022/06/15 12:29:01;;;;;;;;;;;;;;;23.02;44.29;101569.53;7287118;19;151941;-57
2022/06/15 12:31:45;;;;;;;;;;;;;;;23.03;44.55;101561.91;7278037;19;154939;-57
2022/06/15 12:34:17;;;;;;;;;;;;;;;23.02;44.24;101563.06;7281917;19;153489;-57
2022/06/15 12:36:55;;;;;;;;;;;;;;;23.03;44.36;101565.53;7279998;19;154285;-59
2022/06/15 12:39:52;;;;;;;;;;;;;;;23.03;44.80;101564.72;7277860;19;156190;-56
2022/06/15 12:42:22;;;;;;;;;;;;;;;23.07;44.73;101567.75;7279550;19;151577;-55
2022/06/15 12:44:58;;;;;;;;;;;;;;;23.12;44.28;101573.31;7280017;19;152749;-59
2022/06/15 12:47:26;;;;;;;;;;;;;;;23.17;43.97;101582.47;7280017;19;153543;-58
2022/06/15 12:50:12;;;;;;;;;;;;;;;23.22;43.56;101575.91;7279495;19;151733;-58
2022/06/15 12:52:44;;;;;;;;;;;;;;;23.23;43.48;101569.97;7287644;19;153338;-58
2022/06/15 12:55:11;;;;;;;;;;;;;;;23.24;43.22;101574.47;7281090;19;152460;-59
2022/06/15 12:57:56;;;;;;;;;;;;;;;23.27;42.87;101589.91;7278960;19;153265;-59
2022/06/15 13:00:27;;;;;;;;;;;;;;;23.25;42.67;101584.59;7281633;19;154055;-56
2022/06/15 13:03:07;;;;;;;;;;;;;;;23.26;42.63;101591.06;7231829;19;155078;-55
2022/06/15 13:05:38;;;;;;;;;;;;;;;23.27;42.85;101581.44;7279318;19;156317;-59